sensor_id;sensor_type;location;lat;lon;timestamp;pressure;altitude;pressure_sealevel;temperature;humidity
76050;BME280;64967;50.234;19.224;2023-04-24T00:00:14;97583.88;;;10.36;81.60
76050;BME280;64967;50.234;19.224;2023-04-24T00:02:41;97563.00;;;10.25;81.46
76050;BME280;64967;50.234;19.224;2023-04-24T00:05:24;97576.06;;;10.28;81.76
76050;BME280;64967;50.234;19.224;2023-04-24T00:08:14;97536.47;;;9.97;82.13
76050;BME280;64967;50.234;19.224;2023-04-24T00:11:03;97570.19;;;10.13;83.87
76050;BME280;64967;50.234;19.224;2023-04-24T00:13:43;97574.44;;;10.02;84.08
76050;BME280;64967;50.234;19.224;2023-04-24T00:16:10;97550.00;;;9.91;83.32
76050;BME280;64967;50.234;19.224;2023-04-24T00:18:37;97563.00;;;10.00;84.04
76050;BME280;64967;50.234;19.224;2023-04-24T00:21:04;97560.56;;;9.99;83.66
76050;BME280;64967;50.234;19.224;2023-04-24T00:23:31;97557.56;;;10.07;77.08
76050;BME280;64967;50.234;19.224;2023-04-24T00:25:58;97549.16;;;10.15;76.86
76050;BME280;64967;50.234;19.224;2023-04-24T00:28:25;97549.97;;;10.22;74.64
76050;BME280;64967;50.234;19.224;2023-04-24T00:30:52;97526.31;;;10.17;71.98
76050;BME280;64967;50.234;19.224;2023-04-24T00:33:19;97544.25;;;10.48;70.53
76050;BME280;64967;50.234;19.224;2023-04-24T00:35:47;97546.09;;;10.66;69.67
76050;BME280;64967;50.234;19.224;2023-04-24T00:38:14;97536.09;;;10.85;67.68
76050;BME280;64967;50.234;19.224;2023-04-24T00:40:43;97532.75;;;11.01;67.42
76050;BME280;64967;50.234;19.224;2023-04-24T00:43:10;97536.53;;;11.11;66.76
76050;BME280;64967;50.234;19.224;2023-04-24T00:45:38;97532.69;;;11.19;65.92
76050;BME280;64967;50.234;19.224;2023-04-24T00:48:05;97531.16;;;11.23;65.75
76050;BME280;64967;50.234;19.224;2023-04-24T00:50:34;97523.19;;;11.28;64.88
76050;BME280;64967;50.234;19.224;2023-04-24T00:53:02;97518.22;;;11.25;64.62
76050;BME280;64967;50.234;19.224;2023-04-24T00:55:30;97516.84;;;11.34;64.10
76050;BME280;64967;50.234;19.224;2023-04-24T00:57:57;97516.25;;;11.32;63.24
76050;BME280;64967;50.234;19.224;2023-04-24T01:00:24;97528.38;;;11.41;63.36
76050;BME280;64967;50.234;19.224;2023-04-24T01:02:52;97518.94;;;11.44;62.57
76050;BME280;64967;50.234;19.224;2023-04-24T01:05:24;97518.25;;;11.48;62.22
76050;BME280;64967;50.234;19.224;2023-04-24T01:08:13;97517.81;;;11.51;61.57
76050;BME280;64967;50.234;19.224;2023-04-24T01:11:01;97506.72;;;11.53;61.29
76050;BME280;64967;50.234;19.224;2023-04-24T01:13:50;97508.03;;;11.50;61.15
76050;BME280;64967;50.234;19.224;2023-04-24T01:16:40;97511.56;;;11.51;61.75
76050;BME280;64967;50.234;19.224;2023-04-24T01:19:19;97505.19;;;11.45;60.70
76050;BME280;64967;50.234;19.224;2023-04-24T01:21:47;97512.03;;;11.48;61.70
76050;BME280;64967;50.234;19.224;2023-04-24T01:24:18;97506.25;;;11.44;65.55
76050;BME280;64967;50.234;19.224;2023-04-24T01:26:46;97499.50;;;11.12;69.16
76050;BME280;64967;50.234;19.224;2023-04-24T01:29:13;97501.63;;;10.80;71.55
76050;BME280;64967;50.234;19.224;2023-04-24T01:31:40;97498.84;;;10.68;74.90
76050;BME280;64967;50.234;19.224;2023-04-24T01:34:08;97497.41;;;10.36;76.80
76050;BME280;64967;50.234;19.224;2023-04-24T01:36:35;97486.75;;;10.23;75.86
76050;BME280;64967;50.234;19.224;2023-04-24T01:39:02;97497.13;;;10.26;74.34
76050;BME280;64967;50.234;19.224;2023-04-24T01:41:30;97495.34;;;10.13;76.55
76050;BME280;64967;50.234;19.224;2023-04-24T01:43:57;97496.31;;;10.01;76.48
76050;BME280;64967;50.234;19.224;2023-04-24T01:46:25;97498.00;;;10.02;75.68
76050;BME280;64967;50.234;19.224;2023-04-24T01:48:53;97483.59;;;9.90;77.45
76050;BME280;64967;50.234;19.224;2023-04-24T01:51:20;97487.47;;;9.75;76.54
76050;BME280;64967;50.234;19.224;2023-04-24T01:53:47;97480.41;;;9.74;77.40
76050;BME280;64967;50.234;19.224;2023-04-24T01:56:14;97479.41;;;9.69;79.50
76050;BME280;64967;50.234;19.224;2023-04-24T01:58:41;97481.75;;;9.65;81.69
76050;BME280;64967;50.234;19.224;2023-04-24T02:01:09;97471.69;;;9.54;81.91
76050;BME280;64967;50.234;19.224;2023-04-24T02:03:41;97482.53;;;9.48;81.71
76050;BME280;64967;50.234;19.224;2023-04-24T02:06:09;97468.66;;;9.44;81.05
76050;BME280;64967;50.234;19.224;2023-04-24T02:08:36;97473.06;;;9.38;81.51
76050;BME280;64967;50.234;19.224;2023-04-24T02:11:03;97464.44;;;9.30;82.22
76050;BME280;64967;50.234;19.224;2023-04-24T02:13:30;97465.66;;;9.34;81.38
76050;BME280;64967;50.234;19.224;2023-04-24T02:15:58;97469.44;;;9.26;76.78
76050;BME280;64967;50.234;19.224;2023-04-24T02:18:25;97463.22;;;9.26;74.41
76050;BME280;64967;50.234;19.224;2023-04-24T02:20:52;97467.31;;;9.35;75.32
76050;BME280;64967;50.234;19.224;2023-04-24T02:23:19;97462.50;;;9.37;77.00
76050;BME280;64967;50.234;19.224;2023-04-24T02:25:46;97464.41;;;9.36;78.97
76050;BME280;64967;50.234;19.224;2023-04-24T02:28:14;97453.66;;;9.30;78.46
76050;BME280;64967;50.234;19.224;2023-04-24T02:30:41;97467.84;;;9.19;83.04
76050;BME280;64967;50.234;19.224;2023-04-24T02:33:08;97451.75;;;9.06;85.32
76050;BME280;64967;50.234;19.224;2023-04-24T02:35:34;97430.63;;;8.78;79.34
76050;BME280;64967;50.234;19.224;2023-04-24T02:38:01;97447.53;;;8.91;80.74
76050;BME280;64967;50.234;19.224;2023-04-24T02:40:29;97441.44;;;8.71;79.64
76050;BME280;64967;50.234;19.224;2023-04-24T02:42:56;97440.44;;;8.66;82.35
76050;BME280;64967;50.234;19.224;2023-04-24T02:45:23;97434.66;;;8.62;82.50
76050;BME280;64967;50.234;19.224;2023-04-24T02:47:50;97445.41;;;8.69;81.04
76050;BME280;64967;50.234;19.224;2023-04-24T02:50:17;97447.03;;;8.70;80.98
76050;BME280;64967;50.234;19.224;2023-04-24T02:52:44;97450.56;;;8.70;80.51
76050;BME280;64967;50.234;19.224;2023-04-24T02:55:11;97447.88;;;8.70;80.43
76050;BME280;64967;50.234;19.224;2023-04-24T02:57:38;97432.16;;;8.67;81.67
76050;BME280;64967;50.234;19.224;2023-04-24T03:00:06;97424.84;;;8.43;82.92
76050;BME280;64967;50.234;19.224;2023-04-24T03:02:33;97442.19;;;8.54;82.31
76050;BME280;64967;50.234;19.224;2023-04-24T03:05:01;97441.81;;;8.50;81.83
76050;BME280;64967;50.234;19.224;2023-04-24T03:07:29;97445.53;;;8.49;80.27
76050;BME280;64967;50.234;19.224;2023-04-24T03:09:56;97442.84;;;8.49;81.98
76050;BME280;64967;50.234;19.224;2023-04-24T03:12:24;97416.63;;;8.25;82.77
76050;BME280;64967;50.234;19.224;2023-04-24T03:14:52;97441.03;;;8.36;81.50
76050;BME280;64967;50.234;19.224;2023-04-24T03:17:18;97443.50;;;8.38;83.32
76050;BME280;64967;50.234;19.224;2023-04-24T03:19:46;97444.56;;;8.37;80.50
76050;BME280;64967;50.234;19.224;2023-04-24T03:22:13;97444.13;;;8.40;79.77
76050;BME280;64967;50.234;19.224;2023-04-24T03:24:40;97441.88;;;8.37;80.47
76050;BME280;64967;50.234;19.224;2023-04-24T03:27:07;97436.50;;;8.37;82.15
76050;BME280;64967;50.234;19.224;2023-04-24T03:29:34;97439.19;;;8.37;82.46
76050;BME280;64967;50.234;19.224;2023-04-24T03:32:01;97439.38;;;8.35;82.21
76050;BME280;64967;50.234;19.224;2023-04-24T03:34:28;97437.75;;;8.28;83.89
76050;BME280;64967;50.234;19.224;2023-04-24T03:36:55;97445.63;;;8.29;84.70
76050;BME280;64967;50.234;19.224;2023-04-24T03:39:22;97442.06;;;8.29;83.14
76050;BME280;64967;50.234;19.224;2023-04-24T03:41:49;97437.56;;;8.23;84.11
76050;BME280;64967;50.234;19.224;2023-04-24T03:44:16;97442.97;;;8.16;84.69
76050;BME280;64967;50.234;19.224;2023-04-24T03:46:42;97445.69;;;8.10;85.65
76050;BME280;64967;50.234;19.224;2023-04-24T03:49:09;97443.66;;;8.05;85.91
76050;BME280;64967;50.234;19.224;2023-04-24T03:51:36;97445.53;;;7.98;86.19
76050;BME280;64967;50.234;19.224;2023-04-24T03:54:03;97448.16;;;8.11;86.25
76050;BME280;64967;50.234;19.224;2023-04-24T03:56:30;97451.72;;;8.05;87.90
76050;BME280;64967;50.234;19.224;2023-04-24T03:58:57;97442.13;;;8.16;89.24
76050;BME280;64967;50.234;19.224;2023-04-24T04:01:24;97446.03;;;8.26;89.03
76050;BME280;64967;50.234;19.224;2023-04-24T04:03:51;97449.50;;;8.40;86.79
76050;BME280;64967;50.234;19.224;2023-04-24T04:06:18;97450.13;;;8.42;85.35
76050;BME280;64967;50.234;19.224;2023-04-24T04:08:46;97448.81;;;8.51;88.04
76050;BME280;64967;50.234;19.224;2023-04-24T04:11:13;97432.69;;;8.44;89.13
76050;BME280;64967;50.234;19.224;2023-04-24T04:13:40;97444.22;;;8.58;88.39
76050;BME280;64967;50.234;19.224;2023-04-24T04:16:08;97448.69;;;8.71;86.91
76050;BME280;64967;50.234;19.224;2023-04-24T04:18:35;97447.41;;;8.80;86.68
76050;BME280;64967;50.234;19.224;2023-04-24T04:21:02;97438.22;;;8.87;85.48
76050;BME280;64967;50.234;19.224;2023-04-24T04:23:29;97437.97;;;8.95;83.97
76050;BME280;64967;50.234;19.224;2023-04-24T04:25:57;97440.81;;;9.01;85.43
76050;BME280;64967;50.234;19.224;2023-04-24T04:28:24;97442.34;;;9.15;83.46
76050;BME280;64967;50.234;19.224;2023-04-24T04:30:51;97441.66;;;9.26;84.33
76050;BME280;64967;50.234;19.224;2023-04-24T04:33:21;97429.00;;;9.26;81.91
76050;BME280;64967;50.234;19.224;2023-04-24T04:35:49;97427.66;;;9.35;82.99
76050;BME280;64967;50.234;19.224;2023-04-24T04:38:16;97431.94;;;9.43;83.54
76050;BME280;64967;50.234;19.224;2023-04-24T04:40:43;97426.63;;;9.55;84.56
76050;BME280;64967;50.234;19.224;2023-04-24T04:43:11;97423.25;;;9.59;84.81
76050;BME280;64967;50.234;19.224;2023-04-24T04:45:39;97425.22;;;9.70;83.30
76050;BME280;64967;50.234;19.224;2023-04-24T04:48:09;97431.38;;;9.77;82.40
76050;BME280;64967;50.234;19.224;2023-04-24T04:50:36;97426.28;;;9.88;83.50
76050;BME280;64967;50.234;19.224;2023-04-24T04:53:02;97431.81;;;9.93;82.31
76050;BME280;64967;50.234;19.224;2023-04-24T04:55:29;97431.16;;;9.97;80.94
76050;BME280;64967;50.234;19.224;2023-04-24T04:57:56;97432.50;;;10.06;81.01
76050;BME280;64967;50.234;19.224;2023-04-24T05:00:23;97434.03;;;10.20;79.28
76050;BME280;64967;50.234;19.224;2023-04-24T05:02:52;97437.38;;;10.34;79.08
76050;BME280;64967;50.234;19.224;2023-04-24T05:05:19;97440.47;;;10.49;78.25
76050;BME280;64967;50.234;19.224;2023-04-24T05:07:46;97434.72;;;10.76;77.43
76050;BME280;64967;50.234;19.224;2023-04-24T05:10:13;97433.56;;;10.83;77.40
76050;BME280;64967;50.234;19.224;2023-04-24T05:12:40;97435.94;;;10.91;76.09
76050;BME280;64967;50.234;19.224;2023-04-24T05:15:09;97432.06;;;10.99;76.22
76050;BME280;64967;50.234;19.224;2023-04-24T05:17:37;97438.25;;;11.52;73.98
76050;BME280;64967;50.234;19.224;2023-04-24T05:20:04;97438.47;;;11.97;69.92
76050;BME280;64967;50.234;19.224;2023-04-24T05:22:36;97430.06;;;12.50;67.52
76050;BME280;64967;50.234;19.224;2023-04-24T05:25:03;97435.09;;;12.87;67.28
76050;BME280;64967;50.234;19.224;2023-04-24T05:27:30;97430.44;;;13.66;63.90
76050;BME280;64967;50.234;19.224;2023-04-24T05:29:57;97434.56;;;14.28;61.88
76050;BME280;64967;50.234;19.224;2023-04-24T05:32:24;97419.81;;;15.22;58.25
76050;BME280;64967;50.234;19.224;2023-04-24T05:34:51;97445.75;;;15.61;55.58
76050;BME280;64967;50.234;19.224;2023-04-24T05:37:18;97438.53;;;16.29;55.83
76050;BME280;64967;50.234;19.224;2023-04-24T05:39:45;97435.34;;;16.47;54.92
76050;BME280;64967;50.234;19.224;2023-04-24T05:42:12;97430.28;;;16.81;55.08
76050;BME280;64967;50.234;19.224;2023-04-24T05:44:39;97422.41;;;17.25;53.54
76050;BME280;64967;50.234;19.224;2023-04-24T05:47:05;97425.69;;;17.17;49.96
76050;BME280;64967;50.234;19.224;2023-04-24T05:49:32;97422.94;;;18.03;51.48
76050;BME280;64967;50.234;19.224;2023-04-24T05:51:59;97423.78;;;18.78;47.05
76050;BME280;64967;50.234;19.224;2023-04-24T05:54:26;97420.47;;;19.20;43.52
76050;BME280;64967;50.234;19.224;2023-04-24T05:56:53;97414.19;;;19.87;46.17
76050;BME280;64967;50.234;19.224;2023-04-24T05:59:22;97425.47;;;20.38;40.99
76050;BME280;64967;50.234;19.224;2023-04-24T06:01:48;97418.31;;;20.61;38.16
76050;BME280;64967;50.234;19.224;2023-04-24T06:04:15;97414.66;;;20.89;37.96
76050;BME280;64967;50.234;19.224;2023-04-24T06:06:43;97406.06;;;21.14;37.76
76050;BME280;64967;50.234;19.224;2023-04-24T06:09:09;97410.50;;;21.48;37.55
76050;BME280;64967;50.234;19.224;2023-04-24T06:11:36;97409.75;;;21.74;36.58
76050;BME280;64967;50.234;19.224;2023-04-24T06:14:03;97412.19;;;21.76;34.35
76050;BME280;64967;50.234;19.224;2023-04-24T06:16:31;97407.63;;;21.53;34.35
76050;BME280;64967;50.234;19.224;2023-04-24T06:18:58;97402.72;;;21.50;37.21
76050;BME280;64967;50.234;19.224;2023-04-24T06:21:25;97409.34;;;21.49;35.62
76050;BME280;64967;50.234;19.224;2023-04-24T06:23:52;97401.47;;;21.61;35.07
76050;BME280;64967;50.234;19.224;2023-04-24T06:26:19;97410.13;;;21.68;33.52
76050;BME280;64967;50.234;19.224;2023-04-24T06:28:46;97402.28;;;21.61;33.62
76050;BME280;64967;50.234;19.224;2023-04-24T06:31:13;97409.69;;;21.28;32.66
76050;BME280;64967;50.234;19.224;2023-04-24T06:33:40;97395.59;;;21.16;35.18
76050;BME280;64967;50.234;19.224;2023-04-24T06:36:07;97403.41;;;21.04;35.53
76050;BME280;64967;50.234;19.224;2023-04-24T06:38:34;97398.47;;;21.06;36.04
76050;BME280;64967;50.234;19.224;2023-04-24T06:41:01;97401.47;;;20.86;34.43
76050;BME280;64967;50.234;19.224;2023-04-24T06:43:28;97399.69;;;20.76;35.73
76050;BME280;64967;50.234;19.224;2023-04-24T06:45:55;97390.00;;;20.84;35.10
76050;BME280;64967;50.234;19.224;2023-04-24T06:48:23;97383.16;;;21.00;33.60
76050;BME280;64967;50.234;19.224;2023-04-24T06:50:50;97389.47;;;21.19;33.06
76050;BME280;64967;50.234;19.224;2023-04-24T06:53:18;97364.75;;;21.19;33.61
76050;BME280;64967;50.234;19.224;2023-04-24T06:55:45;97395.72;;;21.25;33.00
76050;BME280;64967;50.234;19.224;2023-04-24T06:58:12;97390.59;;;21.18;32.58
76050;BME280;64967;50.234;19.224;2023-04-24T07:00:39;97385.38;;;21.35;35.02
76050;BME280;64967;50.234;19.224;2023-04-24T07:03:06;97390.22;;;21.57;35.74
76050;BME280;64967;50.234;19.224;2023-04-24T07:05:34;97379.69;;;21.78;33.54
76050;BME280;64967;50.234;19.224;2023-04-24T07:08:02;97384.25;;;22.01;33.27
76050;BME280;64967;50.234;19.224;2023-04-24T07:10:29;97378.75;;;21.69;32.28
76050;BME280;64967;50.234;19.224;2023-04-24T07:12:56;97383.81;;;21.62;31.78
76050;BME280;64967;50.234;19.224;2023-04-24T07:15:23;97327.38;;;21.18;35.09
76050;BME280;64967;50.234;19.224;2023-04-24T07:17:50;97379.44;;;21.28;33.91
76050;BME280;64967;50.234;19.224;2023-04-24T07:20:17;97382.22;;;20.48;30.55
76050;BME280;64967;50.234;19.224;2023-04-24T07:22:45;97369.63;;;20.85;33.01
76050;BME280;64967;50.234;19.224;2023-04-24T07:25:11;97362.50;;;21.21;31.86
76050;BME280;64967;50.234;19.224;2023-04-24T07:27:38;97362.78;;;20.64;30.05
76050;BME280;64967;50.234;19.224;2023-04-24T07:30:06;97370.06;;;20.31;34.14
76050;BME280;64967;50.234;19.224;2023-04-24T07:32:33;97376.75;;;20.86;34.52
76050;BME280;64967;50.234;19.224;2023-04-24T07:35:00;97369.63;;;21.04;33.03
76050;BME280;64967;50.234;19.224;2023-04-24T07:37:27;97374.47;;;21.12;34.33
76050;BME280;64967;50.234;19.224;2023-04-24T07:39:55;97370.06;;;20.92;33.49
76050;BME280;64967;50.234;19.224;2023-04-24T07:42:22;97372.69;;;21.02;32.82
76050;BME280;64967;50.234;19.224;2023-04-24T07:44:49;97357.16;;;21.11;32.61
76050;BME280;64967;50.234;19.224;2023-04-24T07:47:16;97357.97;;;20.74;34.11
76050;BME280;64967;50.234;19.224;2023-04-24T07:49:43;97365.75;;;20.86;34.06
76050;BME280;64967;50.234;19.224;2023-04-24T07:52:10;97352.53;;;21.07;32.15
76050;BME280;64967;50.234;19.224;2023-04-24T07:54:37;97354.91;;;20.76;33.05
76050;BME280;64967;50.234;19.224;2023-04-24T07:57:04;97354.19;;;20.89;34.89
76050;BME280;64967;50.234;19.224;2023-04-24T07:59:33;97351.94;;;20.91;34.08
76050;BME280;64967;50.234;19.224;2023-04-24T08:02:00;97351.13;;;21.09;32.18
76050;BME280;64967;50.234;19.224;2023-04-24T08:04:28;97352.94;;;21.19;32.20
76050;BME280;64967;50.234;19.224;2023-04-24T08:06:55;97352.22;;;21.08;31.35
76050;BME280;64967;50.234;19.224;2023-04-24T08:09:22;97344.50;;;21.29;32.46
76050;BME280;64967;50.234;19.224;2023-04-24T08:11:52;97354.41;;;21.44;33.64
76050;BME280;64967;50.234;19.224;2023-04-24T08:14:20;97343.41;;;21.44;33.35
76050;BME280;64967;50.234;19.224;2023-04-24T08:16:46;97352.13;;;21.51;32.76
76050;BME280;64967;50.234;19.224;2023-04-24T08:19:14;97348.72;;;21.40;33.04
76050;BME280;64967;50.234;19.224;2023-04-24T08:21:41;97342.59;;;21.29;32.82
76050;BME280;64967;50.234;19.224;2023-04-24T08:24:07;97342.59;;;21.11;32.87
76050;BME280;64967;50.234;19.224;2023-04-24T08:26:35;97332.94;;;21.13;32.95
76050;BME280;64967;50.234;19.224;2023-04-24T08:29:02;97329.91;;;21.15;35.59
76050;BME280;64967;50.234;19.224;2023-04-24T08:31:29;97330.03;;;20.67;33.93
76050;BME280;64967;50.234;19.224;2023-04-24T08:33:56;97344.59;;;20.86;33.81
76050;BME280;64967;50.234;19.224;2023-04-24T08:36:23;97338.22;;;20.91;33.71
76050;BME280;64967;50.234;19.224;2023-04-24T08:38:58;97333.75;;;20.95;33.11
76050;BME280;64967;50.234;19.224;2023-04-24T08:41:27;97328.19;;;21.00;32.98
76050;BME280;64967;50.234;19.224;2023-04-24T08:43:54;97329.75;;;21.25;32.64
76050;BME280;64967;50.234;19.224;2023-04-24T08:46:24;97327.78;;;21.25;31.61
76050;BME280;64967;50.234;19.224;2023-04-24T08:48:52;97330.53;;;21.25;32.22
76050;BME280;64967;50.234;19.224;2023-04-24T08:51:20;97333.41;;;20.83;32.43
76050;BME280;64967;50.234;19.224;2023-04-24T08:53:47;97332.78;;;20.86;33.88
76050;BME280;64967;50.234;19.224;2023-04-24T08:56:15;97328.84;;;21.11;32.79
76050;BME280;64967;50.234;19.224;2023-04-24T08:58:43;97320.47;;;21.34;33.70
76050;BME280;64967;50.234;19.224;2023-04-24T09:01:11;97333.78;;;21.60;34.07
76050;BME280;64967;50.234;19.224;2023-04-24T09:03:38;97336.56;;;21.73;33.01
76050;BME280;64967;50.234;19.224;2023-04-24T09:06:08;97328.31;;;21.73;35.22
76050;BME280;64967;50.234;19.224;2023-04-24T09:08:36;97321.94;;;21.46;33.80
76050;BME280;64967;50.234;19.224;2023-04-24T09:11:03;97322.81;;;21.27;33.07
76050;BME280;64967;50.234;19.224;2023-04-24T09:13:30;97329.53;;;21.35;32.67
76050;BME280;64967;50.234;19.224;2023-04-24T09:15:58;97325.34;;;21.56;35.44
76050;BME280;64967;50.234;19.224;2023-04-24T09:18:27;97322.97;;;21.17;30.12
76050;BME280;64967;50.234;19.224;2023-04-24T09:21:06;97317.56;;;20.37;32.63
76050;BME280;64967;50.234;19.224;2023-04-24T09:23:34;97322.47;;;20.78;35.10
76050;BME280;64967;50.234;19.224;2023-04-24T09:26:03;97315.47;;;21.04;31.22
76050;BME280;64967;50.234;19.224;2023-04-24T09:28:38;97318.13;;;21.28;31.30
76050;BME280;64967;50.234;19.224;2023-04-24T09:31:07;97310.22;;;20.89;30.38
76050;BME280;64967;50.234;19.224;2023-04-24T09:33:34;97315.09;;;21.29;30.75
76050;BME280;64967;50.234;19.224;2023-04-24T09:36:02;97310.78;;;21.56;30.95
76050;BME280;64967;50.234;19.224;2023-04-24T09:38:33;97303.81;;;21.45;30.81
76050;BME280;64967;50.234;19.224;2023-04-24T09:41:02;97287.69;;;21.06;31.06
76050;BME280;64967;50.234;19.224;2023-04-24T09:43:30;97299.25;;;20.89;30.96
76050;BME280;64967;50.234;19.224;2023-04-24T09:45:59;97291.56;;;21.05;31.50
76050;BME280;64967;50.234;19.224;2023-04-24T09:48:36;97289.41;;;21.20;33.64
76050;BME280;64967;50.234;19.224;2023-04-24T09:51:05;97297.38;;;21.35;32.70
76050;BME280;64967;50.234;19.224;2023-04-24T09:53:38;97292.41;;;21.51;32.48
76050;BME280;64967;50.234;19.224;2023-04-24T09:56:09;97290.28;;;21.62;31.18
76050;BME280;64967;50.234;19.224;2023-04-24T09:58:36;97289.81;;;21.27;32.32
76050;BME280;64967;50.234;19.224;2023-04-24T10:01:03;97287.75;;;21.19;31.71
76050;BME280;64967;50.234;19.224;2023-04-24T10:03:32;97286.97;;;20.81;32.71
76050;BME280;64967;50.234;19.224;2023-04-24T10:06:03;97278.53;;;21.10;33.47
76050;BME280;64967;50.234;19.224;2023-04-24T10:08:36;97292.47;;;21.32;33.40
76050;BME280;64967;50.234;19.224;2023-04-24T10:11:04;97289.56;;;21.43;32.16
76050;BME280;64967;50.234;19.224;2023-04-24T10:13:32;97277.94;;;21.46;32.32
76050;BME280;64967;50.234;19.224;2023-04-24T10:16:00;97285.59;;;21.62;31.42
76050;BME280;64967;50.234;19.224;2023-04-24T10:18:28;97279.75;;;21.36;31.45
76050;BME280;64967;50.234;19.224;2023-04-24T10:20:57;97282.88;;;20.98;31.68
76050;BME280;64967;50.234;19.224;2023-04-24T10:23:27;97254.09;;;21.09;32.10
76050;BME280;64967;50.234;19.224;2023-04-24T10:25:54;97279.69;;;21.69;32.52
76050;BME280;64967;50.234;19.224;2023-04-24T10:28:22;97279.75;;;21.96;31.26
76050;BME280;64967;50.234;19.224;2023-04-24T10:30:51;97274.53;;;22.08;29.10
76050;BME280;64967;50.234;19.224;2023-04-24T10:33:22;97270.44;;;22.19;28.57
76050;BME280;64967;50.234;19.224;2023-04-24T10:35:51;97271.88;;;22.17;27.60
76050;BME280;64967;50.234;19.224;2023-04-24T10:38:24;97267.03;;;21.41;30.50
76050;BME280;64967;50.234;19.224;2023-04-24T10:40:57;97271.19;;;21.06;31.74
76050;BME280;64967;50.234;19.224;2023-04-24T10:43:33;97258.97;;;20.98;31.91
76050;BME280;64967;50.234;19.224;2023-04-24T10:46:02;97267.66;;;21.51;30.50
76050;BME280;64967;50.234;19.224;2023-04-24T10:48:30;97257.69;;;21.83;32.55
76050;BME280;64967;50.234;19.224;2023-04-24T10:50:57;97249.53;;;21.91;30.30
76050;BME280;64967;50.234;19.224;2023-04-24T10:53:28;97247.38;;;22.15;32.53
76050;BME280;64967;50.234;19.224;2023-04-24T11:01:07;97259.03;;;22.12;32.75
76050;BME280;64967;50.234;19.224;2023-04-24T11:03:35;97254.53;;;22.16;32.61
76050;BME280;64967;50.234;19.224;2023-04-24T11:06:05;97257.75;;;21.36;33.70
76050;BME280;64967;50.234;19.224;2023-04-24T11:08:43;97251.75;;;21.48;33.99
76050;BME280;64967;50.234;19.224;2023-04-24T11:16:33;97258.19;;;21.57;34.35
76050;BME280;64967;50.234;19.224;2023-04-24T11:22:03;97267.69;;;21.19;36.16
76050;BME280;64967;50.234;19.224;2023-04-24T11:27:05;97236.41;;;19.65;39.41
76050;BME280;64967;50.234;19.224;2023-04-24T11:29:48;97276.78;;;19.59;39.89
76050;BME280;64967;50.234;19.224;2023-04-24T11:32:19;97264.38;;;19.38;40.24
76050;BME280;64967;50.234;19.224;2023-04-24T11:34:51;97281.91;;;19.37;40.62
76050;BME280;64967;50.234;19.224;2023-04-24T11:37:19;97283.19;;;19.21;41.78
76050;BME280;64967;50.234;19.224;2023-04-24T11:39:45;97283.22;;;19.16;40.93
76050;BME280;64967;50.234;19.224;2023-04-24T11:42:15;97274.88;;;19.31;41.37
76050;BME280;64967;50.234;19.224;2023-04-24T11:44:42;97274.88;;;19.31;41.04
76050;BME280;64967;50.234;19.224;2023-04-24T11:47:10;97286.22;;;19.48;41.26
76050;BME280;64967;50.234;19.224;2023-04-24T11:49:37;97283.91;;;19.60;41.45
76050;BME280;64967;50.234;19.224;2023-04-24T11:52:04;97276.06;;;19.73;40.74
76050;BME280;64967;50.234;19.224;2023-04-24T11:54:31;97281.00;;;19.76;41.16
76050;BME280;64967;50.234;19.224;2023-04-24T11:56:58;97282.03;;;19.80;41.04
76050;BME280;64967;50.234;19.224;2023-04-24T11:59:26;97277.38;;;19.80;39.50
76050;BME280;64967;50.234;19.224;2023-04-24T12:01:53;97271.13;;;19.75;40.04
76050;BME280;64967;50.234;19.224;2023-04-24T12:04:20;97271.72;;;19.72;40.47
76050;BME280;64967;50.234;19.224;2023-04-24T12:07:01;97275.84;;;19.93;41.10
76050;BME280;64967;50.234;19.224;2023-04-24T12:09:29;97272.28;;;19.92;39.76
76050;BME280;64967;50.234;19.224;2023-04-24T12:12:06;97264.59;;;20.13;41.33
76050;BME280;64967;50.234;19.224;2023-04-24T12:14:47;97279.41;;;20.36;39.66
76050;BME280;64967;50.234;19.224;2023-04-24T12:17:16;97271.53;;;20.29;38.18
76050;BME280;64967;50.234;19.224;2023-04-24T12:19:47;97265.84;;;20.44;40.01
76050;BME280;64967;50.234;19.224;2023-04-24T12:22:14;97262.59;;;20.42;42.25
76050;BME280;64967;50.234;19.224;2023-04-24T12:25:02;97271.72;;;20.14;39.63
76050;BME280;64967;50.234;19.224;2023-04-24T12:27:33;97267.00;;;19.96;41.70
76050;BME280;64967;50.234;19.224;2023-04-24T12:30:02;97270.41;;;19.88;41.13
76050;BME280;64967;50.234;19.224;2023-04-24T12:32:30;97277.06;;;19.82;41.64
76050;BME280;64967;50.234;19.224;2023-04-24T12:34:57;97269.00;;;19.90;42.47
76050;BME280;64967;50.234;19.224;2023-04-24T12:37:26;97265.81;;;19.83;42.18
76050;BME280;64967;50.234;19.224;2023-04-24T12:42:28;97255.13;;;19.29;43.02
76050;BME280;64967;50.234;19.224;2023-04-24T12:45:06;97272.84;;;19.13;43.48
76050;BME280;64967;50.234;19.224;2023-04-24T12:47:34;97280.94;;;19.23;43.50
76050;BME280;64967;50.234;19.224;2023-04-24T12:50:02;97279.94;;;19.14;44.22
76050;BME280;64967;50.234;19.224;2023-04-24T12:52:29;97281.22;;;18.93;43.88
76050;BME280;64967;50.234;19.224;2023-04-24T12:54:58;97288.44;;;18.84;44.25
76050;BME280;64967;50.234;19.224;2023-04-24T12:57:28;97280.78;;;18.81;45.09
76050;BME280;64967;50.234;19.224;2023-04-24T12:59:56;97289.53;;;18.83;45.97
76050;BME280;64967;50.234;19.224;2023-04-24T13:02:24;97286.47;;;18.50;45.94
76050;BME280;64967;50.234;19.224;2023-04-24T13:04:52;97278.28;;;18.45;46.34
76050;BME280;64967;50.234;19.224;2023-04-24T13:07:19;97286.69;;;18.64;47.24
76050;BME280;64967;50.234;19.224;2023-04-24T13:09:48;97273.25;;;18.62;45.92
76050;BME280;64967;50.234;19.224;2023-04-24T13:12:15;97270.91;;;18.41;46.22
76050;BME280;64967;50.234;19.224;2023-04-24T13:14:43;97271.66;;;18.51;47.13
76050;BME280;64967;50.234;19.224;2023-04-24T13:17:10;97269.75;;;18.47;49.14